Avery, Texas
Current Conditions -  °F | °C
As of 10:15 AM on Friday 21 Nov 2014 (Local Time) from K4O4 Reporting Station
Overcast Overcast  
Wind Chill: 54°   Ceiling: 400
Heat Index: 54°   Visibility: 5mi
Dew Point: 52°   Wind: 8mph
Humidity: 94%   Direction: 120°ESE
Pressure: 30.2"   Gusts: NA
Location:  33.55°N, 94.78°W
Report Text: K4O4 211615Z AUTO 12007KT 5SM OVC004 12/11 A3020 RMK AO2
Loading
Personal Weather Stations






























Interactive Weather Map New forecast layout! Learn more

10-Day Weather Forecast

Advertisements
Track Severe Weather on mobile